Sillery, Canada
Current Conditions -  °F | °C
As of 2:00 PM on Thursday 30 Oct 2014 (Local Time) from CYQB Reporting Station
Broken Clouds Broken Clouds  
Wind Chill: 42°   Ceiling: 3500
Heat Index: 48°   Visibility: 30mi
Dew Point: 34°   Wind: 16mph
Humidity: 57%   Direction: 240°WSW
Pressure: 29.9"   Gusts: NA
Location:  46.78°N, 71.26°W
Report Text: CYQB 301800Z 24014KT 30SM BKN035 09/01 A2990 RMK SC5 SLP126
Loading
Personal Weather Stations






























Interactive Weather Map
Tropical Storm Tracking
New forecast layout! Learn more

10-Day Weather Forecast

Advertisements
Track Severe Weather on mobile